createdAt,value
2019-06-27T00:00:08.291Z,5.17
2019-06-27T00:02:42.935Z,5.40
2019-06-27T00:05:20.960Z,5.07
2019-06-27T00:07:55.387Z,6.27
2019-06-27T00:10:27.469Z,5.70
2019-06-27T00:13:00.086Z,5.53
2019-06-27T00:15:29.777Z,5.00
2019-06-27T00:18:12.883Z,5.27
2019-06-27T00:20:42.923Z,5.07
2019-06-27T00:23:44.496Z,5.27
2019-06-27T00:26:15.464Z,5.27
2019-06-27T00:28:50.093Z,4.70
2019-06-27T00:31:22.388Z,4.97
2019-06-27T00:33:57.852Z,5.10
2019-06-27T00:36:33.434Z,5.03
2019-06-27T00:39:07.782Z,5.03
2019-06-27T00:41:44.885Z,5.10
2019-06-27T00:44:15.108Z,5.33
2019-06-27T00:47:06.462Z,4.90
2019-06-27T00:49:37.339Z,5.20
2019-06-27T00:55:09.859Z,5.10
2019-06-27T00:57:44.897Z,5.00
2019-06-27T01:00:16.206Z,4.63
2019-06-27T01:02:48.233Z,5.57
2019-06-27T01:05:18.686Z,4.80
2019-06-27T01:07:51.480Z,5.10
2019-06-27T01:10:23.172Z,4.57
2019-06-27T01:12:53.755Z,4.77
2019-06-27T01:15:28.122Z,5.20
2019-06-27T01:17:59.608Z,5.47
2019-06-27T01:20:30.678Z,4.93
2019-06-27T01:23:03.270Z,5.40
2019-06-27T01:25:33.362Z,4.90
2019-06-27T01:28:07.400Z,4.60
2019-06-27T01:30:46.015Z,4.77
2019-06-27T01:33:16.976Z,4.77
2019-06-27T01:35:47.663Z,5.07
2019-06-27T01:38:18.705Z,5.60
2019-06-27T01:41:02.705Z,5.07
2019-06-27T01:43:40.019Z,5.13
2019-06-27T01:46:17.109Z,4.53
2019-06-27T01:48:48.543Z,4.80
2019-06-27T01:51:19.820Z,4.90
2019-06-27T01:53:55.069Z,4.90
2019-06-27T01:56:26.577Z,4.53
2019-06-27T01:58:59.592Z,5.00
2019-06-27T02:01:30.412Z,5.40
2019-06-27T02:04:02.834Z,5.20
2019-06-27T02:06:40.207Z,4.70
2019-06-27T02:09:17.088Z,4.87
2019-06-27T02:11:52.602Z,4.80
2019-06-27T02:14:23.625Z,4.03
2019-06-27T02:16:55.576Z,4.43
2019-06-27T02:19:28.797Z,4.57
2019-06-27T02:22:00.779Z,5.03
2019-06-27T02:24:33.769Z,4.80
2019-06-27T02:27:06.585Z,4.90
2019-06-27T02:29:40.418Z,4.50
2019-06-27T02:32:12.892Z,4.63
2019-06-27T02:34:44.904Z,4.63
2019-06-27T02:37:21.690Z,4.77
2019-06-27T02:39:54.267Z,5.00
2019-06-27T02:42:25.661Z,4.90
2019-06-27T02:44:56.969Z,5.03
2019-06-27T02:47:27.060Z,4.83
2019-06-27T02:49:59.859Z,5.47
2019-06-27T02:52:30.520Z,4.93
2019-06-27T02:55:11.155Z,5.03
2019-06-27T02:57:42.386Z,4.73
2019-06-27T03:00:12.523Z,4.43
2019-06-27T03:02:45.830Z,4.40
2019-06-27T03:05:20.481Z,4.83
2019-06-27T03:07:54.426Z,4.70
2019-06-27T03:10:33.578Z,4.10
2019-06-27T03:13:04.981Z,4.60
2019-06-27T03:15:37.619Z,4.63
2019-06-27T03:18:09.583Z,4.10
2019-06-27T03:20:51.562Z,4.17
2019-06-27T03:23:23.863Z,3.93
2019-06-27T03:25:59.882Z,3.73
2019-06-27T03:28:51.058Z,4.17
2019-06-27T03:31:07.222Z,4.30
2019-06-27T03:33:38.198Z,4.23
2019-06-27T03:36:07.760Z,4.80
2019-06-27T03:38:41.218Z,4.53
2019-06-27T03:41:12.925Z,4.10
2019-06-27T03:43:45.903Z,4.40
2019-06-27T03:46:24.679Z,4.40
2019-06-27T03:49:03.382Z,3.90
2019-06-27T03:51:34.204Z,4.10
2019-06-27T03:54:07.533Z,3.97
2019-06-27T03:56:40.866Z,3.73
2019-06-27T03:59:13.573Z,4.00
2019-06-27T04:04:39.155Z,3.53
2019-06-27T04:07:15.507Z,3.60
2019-06-27T04:09:59.635Z,3.47
2019-06-27T04:12:36.080Z,3.67
2019-06-27T04:15:07.387Z,4.20
2019-06-27T04:17:39.326Z,4.10
2019-06-27T04:20:10.403Z,3.70
2019-06-27T04:22:43.743Z,4.13
2019-06-27T04:25:20.103Z,3.97
2019-06-27T04:27:51.642Z,4.00
2019-06-27T04:30:23.762Z,4.10
2019-06-27T04:32:53.237Z,4.00
2019-06-27T04:35:29.443Z,3.73
2019-06-27T04:38:01.940Z,3.27
2019-06-27T04:40:35.144Z,3.87
2019-06-27T04:43:08.602Z,4.63
2019-06-27T04:45:41.810Z,4.03
2019-06-27T04:48:14.089Z,6.20
2019-06-27T04:50:44.929Z,5.07
2019-06-27T04:53:15.883Z,4.90
2019-06-27T04:55:52.520Z,4.80
2019-06-27T04:58:29.483Z,4.10
2019-06-27T05:01:00.545Z,4.20
2019-06-27T05:03:31.525Z,4.23
2019-06-27T05:06:02.861Z,4.17
2019-06-27T05:08:39.752Z,4.30
2019-06-27T05:11:16.103Z,4.77
2019-06-27T05:13:48.902Z,4.60
2019-06-27T05:16:22.650Z,4.20
2019-06-27T05:18:55.535Z,4.27
2019-06-27T05:21:28.939Z,4.23
2019-06-27T05:24:04.607Z,4.80
2019-06-27T05:26:35.660Z,4.57
2019-06-27T05:29:08.340Z,4.80
2019-06-27T05:31:40.129Z,4.37
2019-06-27T05:34:14.683Z,4.67
2019-06-27T05:36:44.792Z,5.00
2019-06-27T05:39:16.707Z,5.60
2019-06-27T05:41:50.541Z,5.13
2019-06-27T05:44:21.102Z,6.77
2019-06-27T05:46:51.959Z,5.20
2019-06-27T05:49:22.717Z,5.27
2019-06-27T05:51:53.235Z,5.53
2019-06-27T05:54:24.150Z,6.13
2019-06-27T05:56:55.845Z,6.00
2019-06-27T05:59:29.508Z,5.57
2019-06-27T06:02:04.472Z,4.90
2019-06-27T06:04:36.790Z,5.80
2019-06-27T06:07:06.997Z,4.90
2019-06-27T06:09:42.139Z,5.03
2019-06-27T06:12:16.790Z,5.57
2019-06-27T06:14:46.945Z,5.53
2019-06-27T06:17:23.084Z,6.73
2019-06-27T06:19:55.022Z,6.67
2019-06-27T06:22:24.726Z,6.43
2019-06-27T06:24:58.246Z,6.90
2019-06-27T06:27:29.987Z,7.43
2019-06-27T06:30:04.707Z,5.00
2019-06-27T06:32:36.931Z,5.20
2019-06-27T06:35:13.182Z,5.40
2019-06-27T06:37:43.770Z,4.83
2019-06-27T06:40:20.764Z,4.70
2019-06-27T06:42:59.311Z,5.43
2019-06-27T06:45:28.311Z,5.00
2019-06-27T06:48:03.425Z,4.90
2019-06-27T06:50:33.508Z,4.80
2019-06-27T06:53:07.388Z,5.73
2019-06-27T06:55:38.497Z,4.60
2019-06-27T06:58:11.852Z,5.67
2019-06-27T07:00:41.508Z,5.33
2019-06-27T07:03:12.684Z,6.07
2019-06-27T07:05:47.831Z,4.57
2019-06-27T07:08:24.481Z,5.53
2019-06-27T07:10:54.890Z,5.77
2019-06-27T07:13:28.827Z,5.77
2019-06-27T07:16:04.707Z,5.40
2019-06-27T07:18:34.877Z,5.23
2019-06-27T07:21:06.927Z,5.17
2019-06-27T07:23:39.103Z,4.97
2019-06-27T07:26:13.209Z,5.30
2019-06-27T07:28:45.981Z,5.10
2019-06-27T07:31:18.639Z,4.60
2019-06-27T07:33:52.213Z,5.20
2019-06-27T07:36:22.198Z,5.27
2019-06-27T07:38:54.705Z,5.30
2019-06-27T07:41:24.639Z,6.00
2019-06-27T07:43:55.840Z,6.17
2019-06-27T07:46:26.519Z,4.73
2019-06-27T07:48:57.755Z,5.50
2019-06-27T07:51:27.559Z,5.60
2019-06-27T07:53:57.436Z,5.70
2019-06-27T07:56:30.431Z,5.60
2019-06-27T07:59:03.179Z,5.67
2019-06-27T08:01:36.067Z,4.13
2019-06-27T08:04:06.187Z,5.77
2019-06-27T08:06:36.848Z,4.53
2019-06-27T08:09:11.053Z,5.70
2019-06-27T08:11:40.817Z,4.77
2019-06-27T08:14:22.648Z,5.13
2019-06-27T08:16:53.891Z,5.03
2019-06-27T08:19:27.521Z,5.23
2019-06-27T08:22:02.555Z,5.47
2019-06-27T08:24:51.886Z,5.70
2019-06-27T08:27:28.162Z,5.30
2019-06-27T08:30:02.317Z,5.23
2019-06-27T08:32:35.901Z,6.03
2019-06-27T08:35:11.772Z,5.57
2019-06-27T08:37:55.666Z,4.70
2019-06-27T08:40:29.599Z,5.27
2019-06-27T08:43:01.032Z,5.63
2019-06-27T08:48:37.106Z,5.60
2019-06-27T08:51:11.880Z,6.20
2019-06-27T08:53:44.006Z,5.27
2019-06-27T08:56:14.688Z,5.40
2019-06-27T08:58:46.345Z,4.80
2019-06-27T09:01:30.769Z,6.10
2019-06-27T09:04:07.139Z,5.20
2019-06-27T09:06:38.542Z,5.57
2019-06-27T09:09:14.723Z,6.27
2019-06-27T09:11:46.194Z,5.33
2019-06-27T09:14:17.179Z,5.30
2019-06-27T09:16:48.801Z,4.83
2019-06-27T09:19:29.589Z,5.23
2019-06-27T09:22:12.050Z,5.30
2019-06-27T09:24:52.297Z,4.60
2019-06-27T09:27:25.352Z,4.97
2019-06-27T09:29:58.476Z,4.70
2019-06-27T09:32:32.909Z,4.33
2019-06-27T09:35:03.816Z,4.47
2019-06-27T09:37:37.189Z,4.53
2019-06-27T09:40:14.187Z,4.57
2019-06-27T09:42:46.666Z,4.60
2019-06-27T09:45:17.462Z,5.00
2019-06-27T09:47:47.648Z,4.63
2019-06-27T09:50:21.511Z,4.47
2019-06-27T09:52:53.229Z,4.40
2019-06-27T09:55:24.195Z,11.37
2019-06-27T09:57:53.891Z,5.10
2019-06-27T10:00:25.107Z,4.80
2019-06-27T10:02:57.066Z,5.83
2019-06-27T10:05:27.127Z,4.80
2019-06-27T10:07:56.890Z,5.00
2019-06-27T10:10:26.419Z,8.97
2019-06-27T10:12:56.301Z,6.17
2019-06-27T10:15:26.054Z,4.57
2019-06-27T10:17:55.735Z,5.70
2019-06-27T10:20:25.549Z,5.10
2019-06-27T10:22:55.029Z,7.33
2019-06-27T10:25:24.652Z,4.40
2019-06-27T10:27:54.482Z,6.87
2019-06-27T10:30:24.574Z,8.47
2019-06-27T10:32:59.698Z,4.97
2019-06-27T10:35:25.923Z,4.70
2019-06-27T10:37:55.568Z,5.87
2019-06-27T10:40:25.395Z,5.03
2019-06-27T10:42:55.339Z,5.37
2019-06-27T10:45:25.012Z,4.93
2019-06-27T10:47:54.944Z,4.87
2019-06-27T10:50:24.539Z,4.73
2019-06-27T10:52:54.043Z,4.87
2019-06-27T10:55:23.778Z,6.20
2019-06-27T10:57:53.390Z,4.70
2019-06-27T11:00:24.689Z,4.47
2019-06-27T11:02:54.612Z,3.50
2019-06-27T11:05:24.673Z,4.17
2019-06-27T11:07:54.426Z,4.50
2019-06-27T11:10:24.298Z,8.30
2019-06-27T11:12:53.982Z,3.70
2019-06-27T11:15:23.706Z,2.97
2019-06-27T11:17:53.647Z,2.30
2019-06-27T11:20:23.625Z,2.67
2019-06-27T11:22:53.344Z,2.23
2019-06-27T11:25:23.169Z,2.03
2019-06-27T11:27:52.840Z,2.30
2019-06-27T11:30:22.645Z,1.90
2019-06-27T11:32:52.596Z,1.40
2019-06-27T11:35:22.264Z,1.60
2019-06-27T11:37:52.218Z,2.13
2019-06-27T11:40:22.508Z,2.30
2019-06-27T11:42:52.593Z,1.87
2019-06-27T11:45:22.308Z,1.70
2019-06-27T11:47:52.120Z,1.90
2019-06-27T11:50:21.706Z,1.63
2019-06-27T11:52:51.630Z,1.90
2019-06-27T11:55:21.539Z,1.80
2019-06-27T11:57:51.114Z,1.87
2019-06-27T12:00:21.282Z,1.90
2019-06-27T12:02:51.174Z,1.80
2019-06-27T12:05:20.884Z,1.80
2019-06-27T12:07:50.571Z,1.73
2019-06-27T12:10:20.629Z,1.90
2019-06-27T12:12:50.312Z,1.70
2019-06-27T12:15:20.483Z,1.80
2019-06-27T12:17:50.143Z,1.63
2019-06-27T12:20:20.036Z,1.80
2019-06-27T12:22:50.031Z,2.33
2019-06-27T12:25:19.736Z,2.10
2019-06-27T12:27:49.379Z,2.60
2019-06-27T12:30:19.825Z,2.10
2019-06-27T12:32:52.630Z,1.53
2019-06-27T12:35:20.897Z,1.97
2019-06-27T12:37:50.538Z,1.50
2019-06-27T12:40:20.804Z,1.40
2019-06-27T12:42:50.528Z,1.40
2019-06-27T12:45:20.355Z,1.10
2019-06-27T12:47:50.037Z,1.33
2019-06-27T12:50:20.067Z,1.30
2019-06-27T12:52:49.837Z,1.40
2019-06-27T12:55:19.652Z,1.20
2019-06-27T12:57:49.705Z,2.17
2019-06-27T13:00:19.449Z,1.80
2019-06-27T13:02:49.065Z,1.80
2019-06-27T13:05:20.606Z,1.30
2019-06-27T13:07:50.460Z,1.50
2019-06-27T13:10:21.632Z,1.90
2019-06-27T13:12:51.227Z,1.80
2019-06-27T13:15:22.487Z,1.40
2019-06-27T13:17:52.156Z,1.50
2019-06-27T13:20:22.060Z,1.27
2019-06-27T13:22:51.820Z,1.40
2019-06-27T13:25:21.589Z,1.77
2019-06-27T13:27:51.399Z,1.47
2019-06-27T13:30:23.943Z,2.30
2019-06-27T13:32:53.766Z,1.27
2019-06-27T13:35:24.789Z,1.40
2019-06-27T13:37:54.545Z,1.27
2019-06-27T13:40:24.465Z,2.83
2019-06-27T13:42:55.638Z,1.43
2019-06-27T13:45:26.773Z,1.50
2019-06-27T13:47:56.804Z,1.10
2019-06-27T13:50:26.386Z,1.20
2019-06-27T13:52:56.084Z,1.40
2019-06-27T13:55:26.194Z,1.37
2019-06-27T13:57:57.601Z,1.03
2019-06-27T14:00:43.066Z,1.20
2019-06-27T14:03:12.773Z,1.13
2019-06-27T14:05:42.671Z,1.10
2019-06-27T14:08:12.613Z,1.30
2019-06-27T14:10:42.379Z,1.10
2019-06-27T14:13:11.874Z,1.40
2019-06-27T14:15:41.730Z,1.30
2019-06-27T14:18:11.332Z,1.40
2019-06-27T14:20:40.909Z,1.33
2019-06-27T14:23:10.594Z,1.00
2019-06-27T14:25:40.491Z,1.30
2019-06-27T14:28:10.124Z,1.23
2019-06-27T14:30:39.906Z,1.30
2019-06-27T14:33:10.233Z,1.10
2019-06-27T14:35:40.020Z,1.00
2019-06-27T14:38:11.052Z,1.13
2019-06-27T14:40:40.864Z,1.33
2019-06-27T14:43:10.698Z,1.30
2019-06-27T14:45:40.511Z,1.20
2019-06-27T14:48:10.089Z,1.20
2019-06-27T14:50:40.078Z,1.63
2019-06-27T14:53:09.783Z,1.07
2019-06-27T14:55:39.420Z,1.07
2019-06-27T14:58:08.998Z,1.23
2019-06-27T15:00:38.907Z,1.20
2019-06-27T15:03:08.579Z,1.10
2019-06-27T15:05:38.074Z,0.90
2019-06-27T15:08:07.596Z,1.10
2019-06-27T15:10:37.359Z,1.27
2019-06-27T15:13:06.982Z,1.20
2019-06-27T15:15:36.580Z,1.20
2019-06-27T15:18:06.630Z,1.33
2019-06-27T15:20:36.621Z,0.97
2019-06-27T15:23:06.234Z,1.43
2019-06-27T15:25:35.943Z,1.13
2019-06-27T15:28:05.880Z,1.23
2019-06-27T15:30:35.713Z,1.10
2019-06-27T15:33:05.596Z,1.00
2019-06-27T15:35:50.844Z,1.33
2019-06-27T15:38:07.015Z,1.10
2019-06-27T15:40:36.580Z,1.10
2019-06-27T15:43:06.245Z,0.83
2019-06-27T15:45:36.206Z,1.40
2019-06-27T15:48:05.915Z,1.10
2019-06-27T15:50:35.828Z,1.30
2019-06-27T15:53:06.174Z,1.23
2019-06-27T15:55:35.946Z,1.57
2019-06-27T15:58:06.118Z,2.07
2019-06-27T16:00:39.216Z,1.60
2019-06-27T16:03:07.285Z,1.30
2019-06-27T16:05:37.202Z,0.90
2019-06-27T16:08:06.975Z,1.20
2019-06-27T16:10:36.632Z,1.00
2019-06-27T16:13:06.685Z,1.20
2019-06-27T16:15:36.327Z,1.10
2019-06-27T16:18:05.911Z,1.57
2019-06-27T16:20:36.185Z,1.40
2019-06-27T16:23:05.910Z,1.53
2019-06-27T16:25:35.739Z,1.50
2019-06-27T16:28:05.854Z,1.40
2019-06-27T16:30:35.600Z,1.50
2019-06-27T16:33:05.757Z,1.53
2019-06-27T16:35:35.678Z,1.40
2019-06-27T16:38:05.544Z,1.30
2019-06-27T16:40:35.618Z,1.00
2019-06-27T16:43:05.974Z,1.37
2019-06-27T16:45:35.890Z,1.60
2019-06-27T16:48:05.715Z,2.50
2019-06-27T16:50:35.922Z,1.40
2019-06-27T16:53:05.714Z,1.47
2019-06-27T16:55:35.934Z,1.20
2019-06-27T16:58:05.731Z,1.35
2019-06-27T17:00:35.675Z,1.10
2019-06-27T17:03:05.834Z,1.77
2019-06-27T17:05:35.785Z,1.50
2019-06-27T17:08:06.273Z,1.10
2019-06-27T17:10:36.048Z,1.30
2019-06-27T17:13:05.704Z,1.50
2019-06-27T17:15:35.554Z,1.80
2019-06-27T17:18:06.122Z,1.33
2019-06-27T17:20:35.676Z,1.27
2019-06-27T17:23:05.756Z,1.40
2019-06-27T17:25:35.972Z,1.20
2019-06-27T17:28:05.847Z,1.50
2019-06-27T17:30:35.434Z,1.60
2019-06-27T17:33:05.605Z,1.40
2019-06-27T17:35:38.428Z,2.17
2019-06-27T17:38:08.384Z,1.60
2019-06-27T17:40:38.140Z,1.30
2019-06-27T17:43:07.788Z,1.20
2019-06-27T17:45:37.621Z,1.00
2019-06-27T17:48:07.710Z,1.30
2019-06-27T17:50:37.416Z,1.30
2019-06-27T17:53:07.158Z,1.20
2019-06-27T17:55:36.850Z,1.23
2019-06-27T17:58:06.413Z,1.27
2019-06-27T18:00:36.139Z,1.30
2019-06-27T18:03:06.111Z,1.10
2019-06-27T18:05:35.798Z,1.00
2019-06-27T18:08:09.019Z,1.63
2019-06-27T18:10:38.774Z,1.40
2019-06-27T18:13:08.429Z,1.83
2019-06-27T18:15:38.040Z,1.60
2019-06-27T18:18:07.652Z,1.57
2019-06-27T18:20:37.344Z,1.40
2019-06-27T18:23:07.035Z,3.07
2019-06-27T18:25:36.747Z,2.20
2019-06-27T18:28:06.276Z,2.07
2019-06-27T18:30:36.133Z,1.60
2019-06-27T18:33:06.264Z,2.43
2019-06-27T18:35:35.923Z,1.70
2019-06-27T18:38:05.791Z,1.97
2019-06-27T18:40:38.691Z,1.77
2019-06-27T18:43:08.353Z,1.47
2019-06-27T18:45:38.020Z,1.77
2019-06-27T18:48:07.536Z,1.70
2019-06-27T18:50:37.255Z,1.57
2019-06-27T18:53:06.887Z,1.60
2019-06-27T18:55:36.480Z,1.30
2019-06-27T18:58:06.670Z,1.40
2019-06-27T19:00:36.505Z,1.30
2019-06-27T19:03:06.462Z,1.30
2019-06-27T19:05:36.043Z,1.50
2019-06-27T19:08:05.738Z,1.50
2019-06-27T19:10:35.536Z,1.77
2019-06-27T19:13:05.733Z,1.47
2019-06-27T19:15:35.711Z,1.60
2019-06-27T19:18:07.643Z,1.70
2019-06-27T19:20:47.350Z,1.80
2019-06-27T19:23:54.572Z,1.43
2019-06-27T19:26:24.238Z,1.47
2019-06-27T19:28:53.878Z,1.70
2019-06-27T19:31:23.920Z,1.60
2019-06-27T19:33:53.608Z,1.30
2019-06-27T19:36:23.222Z,2.00
2019-06-27T19:38:54.456Z,1.40
2019-06-27T19:41:24.123Z,1.50
2019-06-27T19:43:53.779Z,2.13
2019-06-27T19:46:24.005Z,1.73
2019-06-27T19:48:53.589Z,1.50
2019-06-27T19:51:23.259Z,1.60
2019-06-27T19:53:53.042Z,1.70
2019-06-27T19:56:22.707Z,1.63
2019-06-27T19:58:52.225Z,1.60
2019-06-27T20:01:22.347Z,1.60
2019-06-27T20:03:51.946Z,1.87
2019-06-27T20:06:21.648Z,1.50
2019-06-27T20:08:51.592Z,1.80
2019-06-27T20:11:21.269Z,1.50
2019-06-27T20:13:50.819Z,1.63
2019-06-27T20:16:20.529Z,1.70
2019-06-27T20:18:50.246Z,1.37
2019-06-27T20:21:20.578Z,2.00
2019-06-27T20:23:50.362Z,1.83
2019-06-27T20:26:19.888Z,1.80
2019-06-27T20:28:52.758Z,3.00
2019-06-27T20:31:22.494Z,1.80
2019-06-27T20:33:52.055Z,2.00
2019-06-27T20:36:22.302Z,1.80
2019-06-27T20:38:52.059Z,2.13
2019-06-27T20:41:21.740Z,4.70
2019-06-27T20:43:53.071Z,12.53
2019-06-27T20:46:22.550Z,2.10
2019-06-27T20:48:53.964Z,1.90
2019-06-27T20:51:23.597Z,2.07
2019-06-27T20:53:53.595Z,1.90
2019-06-27T20:56:23.180Z,1.87
2019-06-27T20:58:53.038Z,1.80
2019-06-27T21:01:23.059Z,1.80
2019-06-27T21:03:56.404Z,1.87
2019-06-27T21:06:26.580Z,2.00
2019-06-27T21:08:56.578Z,2.00
2019-06-27T21:11:26.925Z,1.80
2019-06-27T21:13:56.647Z,1.83
2019-06-27T21:16:27.862Z,1.73
2019-06-27T21:18:57.808Z,1.80
2019-06-27T21:21:27.455Z,1.87
2019-06-27T21:23:57.430Z,1.83
2019-06-27T21:26:27.318Z,2.60
2019-06-27T21:28:56.878Z,1.97
2019-06-27T21:31:26.435Z,2.27
2019-06-27T21:33:56.243Z,2.27
2019-06-27T21:36:25.804Z,2.10
2019-06-27T21:39:07.113Z,2.57
2019-06-27T21:41:28.423Z,2.10
2019-06-27T21:43:58.055Z,2.20
2019-06-27T21:46:27.839Z,2.00
2019-06-27T21:48:58.011Z,2.30
2019-06-27T21:51:27.660Z,2.30
2019-06-27T21:53:57.427Z,2.20
2019-06-27T21:56:27.223Z,2.23
2019-06-27T21:58:56.756Z,2.47
2019-06-27T22:01:29.420Z,2.10
2019-06-27T22:03:59.498Z,2.70
2019-06-27T22:06:29.234Z,2.63
2019-06-27T22:08:59.139Z,2.87
2019-06-27T22:11:28.941Z,2.37
2019-06-27T22:13:58.524Z,2.40
2019-06-27T22:16:29.355Z,2.73
2019-06-27T22:18:59.111Z,2.77
2019-06-27T22:21:28.646Z,5.27
2019-06-27T22:23:58.322Z,6.47
2019-06-27T22:26:27.995Z,7.43
2019-06-27T22:28:57.561Z,6.07
2019-06-27T22:31:27.257Z,5.47
2019-06-27T22:33:57.064Z,5.50
2019-06-27T22:36:26.682Z,7.17
2019-06-27T22:39:14.453Z,3.77
2019-06-27T22:42:02.529Z,2.20
2019-06-27T22:44:49.543Z,2.83
2019-06-27T22:47:36.478Z,3.40
2019-06-27T22:50:22.187Z,3.23
2019-06-27T22:53:07.392Z,2.40
2019-06-27T22:55:37.068Z,2.07
2019-06-27T22:58:06.725Z,2.30
2019-06-27T23:00:36.319Z,2.10
2019-06-27T23:03:06.163Z,2.00
2019-06-27T23:05:36.078Z,2.17
2019-06-27T23:08:05.855Z,1.93
2019-06-27T23:10:35.674Z,2.50
2019-06-27T23:13:08.483Z,2.20
2019-06-27T23:15:38.185Z,2.20
2019-06-27T23:18:07.741Z,2.10
2019-06-27T23:20:47.413Z,2.00
2019-06-27T23:23:34.346Z,2.27
2019-06-27T23:26:08.678Z,2.00
2019-06-27T23:28:44.878Z,2.20
2019-06-27T23:34:10.238Z,2.10
2019-06-27T23:36:43.834Z,2.10
2019-06-27T23:39:16.019Z,2.10
2019-06-27T23:41:54.785Z,2.00
2019-06-27T23:44:52.125Z,2.13
2019-06-27T23:47:32.297Z,2.00
2019-06-27T23:50:05.139Z,2.00
2019-06-27T23:52:38.053Z,2.40
2019-06-27T23:55:29.476Z,2.00
2019-06-27T23:58:22.544Z,2.37
